sensor_id;sensor_type;location;lat;lon;timestamp;P1;durP1;ratioP1;P2;durP2;ratioP2
42194;SDS011;27863;49.440;11.102;2023-11-19T00:01:57;2.40;;;2.20;;
42194;SDS011;27863;49.440;11.102;2023-11-19T00:04:58;2.80;;;2.57;;
42194;SDS011;27863;49.440;11.102;2023-11-19T00:07:58;2.50;;;2.30;;
42194;SDS011;27863;49.440;11.102;2023-11-19T00:10:58;2.60;;;2.40;;
42194;SDS011;27863;49.440;11.102;2023-11-19T00:13:59;3.67;;;2.90;;
42194;SDS011;27863;49.440;11.102;2023-11-19T00:17:02;2.63;;;2.37;;
42194;SDS011;27863;49.440;11.102;2023-11-19T00:20:05;3.03;;;2.73;;
42194;SDS011;27863;49.440;11.102;2023-11-19T00:23:08;3.13;;;2.60;;
42194;SDS011;27863;49.440;11.102;2023-11-19T00:26:08;3.27;;;2.97;;
42194;SDS011;27863;49.440;11.102;2023-11-19T00:29:11;3.40;;;3.10;;
42194;SDS011;27863;49.440;11.102;2023-11-19T00:32:13;2.93;;;2.63;;
42194;SDS011;27863;49.440;11.102;2023-11-19T00:35:15;4.17;;;2.93;;
42194;SDS011;27863;49.440;11.102;2023-11-19T00:38:16;2.90;;;2.63;;
42194;SDS011;27863;49.440;11.102;2023-11-19T00:41:20;2.80;;;2.60;;
42194;SDS011;27863;49.440;11.102;2023-11-19T00:44:21;3.57;;;3.27;;
42194;SDS011;27863;49.440;11.102;2023-11-19T00:47:21;3.27;;;2.97;;
42194;SDS011;27863;49.440;11.102;2023-11-19T00:50:22;2.73;;;2.53;;
42194;SDS011;27863;49.440;11.102;2023-11-19T00:53:23;2.80;;;2.60;;
42194;SDS011;27863;49.440;11.102;2023-11-19T00:56:24;3.60;;;3.30;;
42194;SDS011;27863;49.440;11.102;2023-11-19T00:59:26;2.87;;;2.63;;
42194;SDS011;27863;49.440;11.102;2023-11-19T01:02:28;2.90;;;2.70;;
42194;SDS011;27863;49.440;11.102;2023-11-19T01:05:30;3.50;;;3.20;;
42194;SDS011;27863;49.440;11.102;2023-11-19T01:08:31;3.93;;;3.00;;
42194;SDS011;27863;49.440;11.102;2023-11-19T01:11:31;2.50;;;2.30;;
42194;SDS011;27863;49.440;11.102;2023-11-19T01:14:32;3.30;;;3.00;;
42194;SDS011;27863;49.440;11.102;2023-11-19T01:17:32;2.80;;;2.60;;
42194;SDS011;27863;49.440;11.102;2023-11-19T01:20:34;3.10;;;2.83;;
42194;SDS011;27863;49.440;11.102;2023-11-19T01:23:35;4.63;;;2.80;;
42194;SDS011;27863;49.440;11.102;2023-11-19T01:26:37;3.97;;;2.60;;
42194;SDS011;27863;49.440;11.102;2023-11-19T01:29:45;2.80;;;2.57;;
42194;SDS011;27863;49.440;11.102;2023-11-19T01:32:45;2.50;;;2.30;;
42194;SDS011;27863;49.440;11.102;2023-11-19T01:35:46;3.03;;;2.83;;
42194;SDS011;27863;49.440;11.102;2023-11-19T01:38:49;2.90;;;2.70;;
42194;SDS011;27863;49.440;11.102;2023-11-19T01:41:50;3.03;;;2.80;;
42194;SDS011;27863;49.440;11.102;2023-11-19T01:45:00;2.63;;;2.40;;
42194;SDS011;27863;49.440;11.102;2023-11-19T01:48:02;3.03;;;2.73;;
42194;SDS011;27863;49.440;11.102;2023-11-19T01:51:07;2.60;;;2.40;;
42194;SDS011;27863;49.440;11.102;2023-11-19T01:54:09;2.87;;;2.67;;
42194;SDS011;27863;49.440;11.102;2023-11-19T01:57:09;3.40;;;3.17;;
42194;SDS011;27863;49.440;11.102;2023-11-19T02:00:10;3.80;;;3.47;;
42194;SDS011;27863;49.440;11.102;2023-11-19T02:03:17;2.77;;;2.47;;
42194;SDS011;27863;49.440;11.102;2023-11-19T02:06:19;3.00;;;2.70;;
42194;SDS011;27863;49.440;11.102;2023-11-19T02:09:19;3.10;;;2.80;;
42194;SDS011;27863;49.440;11.102;2023-11-19T02:12:20;4.10;;;3.23;;
42194;SDS011;27863;49.440;11.102;2023-11-19T02:15:20;3.17;;;2.97;;
42194;SDS011;27863;49.440;11.102;2023-11-19T02:18:24;3.53;;;3.23;;
42194;SDS011;27863;49.440;11.102;2023-11-19T02:21:29;3.73;;;3.33;;
42194;SDS011;27863;49.440;11.102;2023-11-19T02:24:33;3.03;;;2.83;;
42194;SDS011;27863;49.440;11.102;2023-11-19T02:27:48;3.73;;;3.43;;
42194;SDS011;27863;49.440;11.102;2023-11-19T02:30:57;3.53;;;3.23;;
42194;SDS011;27863;49.440;11.102;2023-11-19T02:33:59;3.43;;;3.20;;
42194;SDS011;27863;49.440;11.102;2023-11-19T02:37:02;4.07;;;3.70;;
42194;SDS011;27863;49.440;11.102;2023-11-19T02:40:04;3.90;;;3.20;;
42194;SDS011;27863;49.440;11.102;2023-11-19T02:43:05;3.80;;;3.43;;
42194;SDS011;27863;49.440;11.102;2023-11-19T02:46:06;3.73;;;3.27;;
42194;SDS011;27863;49.440;11.102;2023-11-19T02:49:09;3.40;;;3.17;;
42194;SDS011;27863;49.440;11.102;2023-11-19T02:52:11;3.70;;;3.40;;
42194;SDS011;27863;49.440;11.102;2023-11-19T02:55:12;3.87;;;3.20;;
42194;SDS011;27863;49.440;11.102;2023-11-19T02:58:13;3.80;;;3.07;;
42194;SDS011;27863;49.440;11.102;2023-11-19T03:01:23;4.73;;;3.40;;
42194;SDS011;27863;49.440;11.102;2023-11-19T03:04:29;3.57;;;3.27;;
42194;SDS011;27863;49.440;11.102;2023-11-19T03:07:31;3.80;;;3.50;;
42194;SDS011;27863;49.440;11.102;2023-11-19T03:10:31;3.43;;;3.13;;
42194;SDS011;27863;49.440;11.102;2023-11-19T03:13:32;4.23;;;3.73;;
42194;SDS011;27863;49.440;11.102;2023-11-19T03:16:33;3.63;;;3.33;;
42194;SDS011;27863;49.440;11.102;2023-11-19T03:19:34;3.30;;;3.10;;
42194;SDS011;27863;49.440;11.102;2023-11-19T03:22:36;4.23;;;3.83;;
42194;SDS011;27863;49.440;11.102;2023-11-19T03:25:37;3.63;;;3.33;;
42194;SDS011;27863;49.440;11.102;2023-11-19T03:28:37;3.83;;;3.53;;
42194;SDS011;27863;49.440;11.102;2023-11-19T03:31:41;4.00;;;3.60;;
42194;SDS011;27863;49.440;11.102;2023-11-19T03:34:44;5.07;;;4.47;;
42194;SDS011;27863;49.440;11.102;2023-11-19T03:37:44;4.20;;;3.90;;
42194;SDS011;27863;49.440;11.102;2023-11-19T03:40:46;4.90;;;4.50;;
42194;SDS011;27863;49.440;11.102;2023-11-19T03:43:47;4.97;;;4.07;;
42194;SDS011;27863;49.440;11.102;2023-11-19T03:46:47;4.67;;;4.10;;
42194;SDS011;27863;49.440;11.102;2023-11-19T03:49:51;5.17;;;4.67;;
42194;SDS011;27863;49.440;11.102;2023-11-19T03:52:52;5.63;;;5.13;;
42194;SDS011;27863;49.440;11.102;2023-11-19T03:55:52;6.10;;;4.67;;
42194;SDS011;27863;49.440;11.102;2023-11-19T03:58:53;5.20;;;4.80;;
42194;SDS011;27863;49.440;11.102;2023-11-19T04:01:54;5.33;;;4.83;;
42194;SDS011;27863;49.440;11.102;2023-11-19T04:04:56;5.47;;;5.07;;
42194;SDS011;27863;49.440;11.102;2023-11-19T04:07:57;5.40;;;4.90;;
42194;SDS011;27863;49.440;11.102;2023-11-19T04:10:57;5.33;;;4.93;;
42194;SDS011;27863;49.440;11.102;2023-11-19T04:13:58;6.20;;;5.63;;
42194;SDS011;27863;49.440;11.102;2023-11-19T04:16:58;5.97;;;5.47;;
42194;SDS011;27863;49.440;11.102;2023-11-19T04:19:58;5.37;;;4.97;;
42194;SDS011;27863;49.440;11.102;2023-11-19T04:23:04;5.67;;;5.17;;
42194;SDS011;27863;49.440;11.102;2023-11-19T04:26:07;5.93;;;5.43;;
42194;SDS011;27863;49.440;11.102;2023-11-19T04:29:11;6.43;;;5.83;;
42194;SDS011;27863;49.440;11.102;2023-11-19T04:32:13;6.50;;;5.87;;
42194;SDS011;27863;49.440;11.102;2023-11-19T04:35:13;6.03;;;5.53;;
42194;SDS011;27863;49.440;11.102;2023-11-19T04:38:14;6.40;;;5.80;;
42194;SDS011;27863;49.440;11.102;2023-11-19T04:41:14;7.00;;;6.30;;
42194;SDS011;27863;49.440;11.102;2023-11-19T04:44:15;6.20;;;5.70;;
42194;SDS011;27863;49.440;11.102;2023-11-19T04:47:16;6.13;;;5.53;;
42194;SDS011;27863;49.440;11.102;2023-11-19T04:50:18;5.70;;;5.17;;
42194;SDS011;27863;49.440;11.102;2023-11-19T04:53:18;6.53;;;5.90;;
42194;SDS011;27863;49.440;11.102;2023-11-19T04:56:19;5.57;;;5.17;;
42194;SDS011;27863;49.440;11.102;2023-11-19T04:59:20;5.60;;;5.17;;
42194;SDS011;27863;49.440;11.102;2023-11-19T05:02:20;5.57;;;5.07;;
42194;SDS011;27863;49.440;11.102;2023-11-19T05:05:21;5.80;;;5.30;;
42194;SDS011;27863;49.440;11.102;2023-11-19T05:08:21;7.17;;;6.50;;
42194;SDS011;27863;49.440;11.102;2023-11-19T05:11:22;6.53;;;5.93;;
42194;SDS011;27863;49.440;11.102;2023-11-19T05:14:22;7.40;;;6.70;;
42194;SDS011;27863;49.440;11.102;2023-11-19T05:17:24;6.37;;;5.77;;
42194;SDS011;27863;49.440;11.102;2023-11-19T05:20:25;7.17;;;6.47;;
42194;SDS011;27863;49.440;11.102;2023-11-19T05:23:25;7.67;;;7.03;;
42194;SDS011;27863;49.440;11.102;2023-11-19T05:26:25;6.87;;;6.27;;
42194;SDS011;27863;49.440;11.102;2023-11-19T05:29:26;6.17;;;5.57;;
42194;SDS011;27863;49.440;11.102;2023-11-19T05:32:27;8.07;;;6.00;;
42194;SDS011;27863;49.440;11.102;2023-11-19T05:35:27;6.90;;;6.30;;
42194;SDS011;27863;49.440;11.102;2023-11-19T05:38:28;7.10;;;6.50;;
42194;SDS011;27863;49.440;11.102;2023-11-19T05:41:29;6.93;;;6.33;;
42194;SDS011;27863;49.440;11.102;2023-11-19T05:44:29;6.40;;;5.87;;
42194;SDS011;27863;49.440;11.102;2023-11-19T05:47:30;7.10;;;6.40;;
42194;SDS011;27863;49.440;11.102;2023-11-19T05:50:31;6.40;;;5.80;;
42194;SDS011;27863;49.440;11.102;2023-11-19T05:53:31;7.17;;;6.47;;
42194;SDS011;27863;49.440;11.102;2023-11-19T05:56:32;7.03;;;6.43;;
42194;SDS011;27863;49.440;11.102;2023-11-19T05:59:33;6.30;;;5.70;;
42194;SDS011;27863;49.440;11.102;2023-11-19T06:02:34;6.97;;;6.30;;
42194;SDS011;27863;49.440;11.102;2023-11-19T06:05:34;5.80;;;5.30;;
42194;SDS011;27863;49.440;11.102;2023-11-19T06:08:35;5.20;;;4.77;;
42194;SDS011;27863;49.440;11.102;2023-11-19T06:11:35;5.87;;;5.33;;
42194;SDS011;27863;49.440;11.102;2023-11-19T06:14:36;5.47;;;4.70;;
42194;SDS011;27863;49.440;11.102;2023-11-19T06:17:37;6.20;;;5.00;;
42194;SDS011;27863;49.440;11.102;2023-11-19T06:20:38;5.97;;;5.37;;
42194;SDS011;27863;49.440;11.102;2023-11-19T06:23:39;5.00;;;4.27;;
42194;SDS011;27863;49.440;11.102;2023-11-19T06:26:39;5.47;;;4.97;;
42194;SDS011;27863;49.440;11.102;2023-11-19T06:29:40;5.47;;;4.97;;
42194;SDS011;27863;49.440;11.102;2023-11-19T06:32:41;5.80;;;5.20;;
42194;SDS011;27863;49.440;11.102;2023-11-19T06:35:41;5.27;;;4.77;;
42194;SDS011;27863;49.440;11.102;2023-11-19T06:38:42;8.03;;;4.77;;
42194;SDS011;27863;49.440;11.102;2023-11-19T06:41:46;5.27;;;4.77;;
42194;SDS011;27863;49.440;11.102;2023-11-19T06:44:47;6.23;;;4.93;;
42194;SDS011;27863;49.440;11.102;2023-11-19T06:47:48;6.03;;;5.43;;
42194;SDS011;27863;49.440;11.102;2023-11-19T06:50:49;5.10;;;4.70;;
42194;SDS011;27863;49.440;11.102;2023-11-19T06:53:49;5.73;;;5.07;;
42194;SDS011;27863;49.440;11.102;2023-11-19T06:56:50;5.17;;;4.27;;
42194;SDS011;27863;49.440;11.102;2023-11-19T06:59:51;6.37;;;5.50;;
42194;SDS011;27863;49.440;11.102;2023-11-19T07:02:51;4.53;;;4.10;;
42194;SDS011;27863;49.440;11.102;2023-11-19T07:05:52;4.43;;;4.03;;
42194;SDS011;27863;49.440;11.102;2023-11-19T07:08:52;4.43;;;4.03;;
42194;SDS011;27863;49.440;11.102;2023-11-19T07:11:53;4.33;;;3.73;;
42194;SDS011;27863;49.440;11.102;2023-11-19T07:14:53;4.40;;;4.00;;
42194;SDS011;27863;49.440;11.102;2023-11-19T07:17:57;3.57;;;3.23;;
42194;SDS011;27863;49.440;11.102;2023-11-19T07:20:58;4.30;;;3.90;;
42194;SDS011;27863;49.440;11.102;2023-11-19T07:24:00;3.83;;;3.50;;
42194;SDS011;27863;49.440;11.102;2023-11-19T07:27:00;3.40;;;3.10;;
42194;SDS011;27863;49.440;11.102;2023-11-19T07:30:03;2.87;;;2.67;;
42194;SDS011;27863;49.440;11.102;2023-11-19T07:33:05;2.90;;;2.70;;
42194;SDS011;27863;49.440;11.102;2023-11-19T07:36:06;3.20;;;2.90;;
42194;SDS011;27863;49.440;11.102;2023-11-19T07:39:07;2.97;;;2.50;;
42194;SDS011;27863;49.440;11.102;2023-11-19T07:42:08;2.53;;;2.33;;
42194;SDS011;27863;49.440;11.102;2023-11-19T07:45:09;2.80;;;2.50;;
42194;SDS011;27863;49.440;11.102;2023-11-19T07:48:10;2.60;;;2.30;;
42194;SDS011;27863;49.440;11.102;2023-11-19T07:51:13;3.80;;;2.00;;
42194;SDS011;27863;49.440;11.102;2023-11-19T07:54:14;2.27;;;2.07;;
42194;SDS011;27863;49.440;11.102;2023-11-19T07:57:14;2.20;;;1.83;;
42194;SDS011;27863;49.440;11.102;2023-11-19T08:00:18;1.90;;;1.70;;
42194;SDS011;27863;49.440;11.102;2023-11-19T08:03:19;2.27;;;1.90;;
42194;SDS011;27863;49.440;11.102;2023-11-19T08:06:22;1.60;;;1.50;;
42194;SDS011;27863;49.440;11.102;2023-11-19T08:09:22;1.80;;;1.50;;
42194;SDS011;27863;49.440;11.102;2023-11-19T08:12:23;1.90;;;1.70;;
42194;SDS011;27863;49.440;11.102;2023-11-19T08:15:23;1.97;;;1.80;;
42194;SDS011;27863;49.440;11.102;2023-11-19T08:18:24;1.90;;;1.70;;
42194;SDS011;27863;49.440;11.102;2023-11-19T08:21:24;1.60;;;1.50;;
42194;SDS011;27863;49.440;11.102;2023-11-19T08:24:27;1.47;;;1.07;;
42194;SDS011;27863;49.440;11.102;2023-11-19T08:27:29;1.37;;;1.27;;
42194;SDS011;27863;49.440;11.102;2023-11-19T08:30:30;1.60;;;0.90;;
42194;SDS011;27863;49.440;11.102;2023-11-19T08:33:30;0.97;;;0.90;;
42194;SDS011;27863;49.440;11.102;2023-11-19T08:36:31;1.03;;;0.90;;
42194;SDS011;27863;49.440;11.102;2023-11-19T08:39:31;0.90;;;0.87;;
42194;SDS011;27863;49.440;11.102;2023-11-19T08:42:32;0.90;;;0.90;;
42194;SDS011;27863;49.440;11.102;2023-11-19T08:45:33;1.20;;;1.10;;
42194;SDS011;27863;49.440;11.102;2023-11-19T08:48:33;1.37;;;1.27;;
42194;SDS011;27863;49.440;11.102;2023-11-19T08:51:34;1.53;;;1.03;;
42194;SDS011;27863;49.440;11.102;2023-11-19T08:54:37;2.97;;;1.00;;
42194;SDS011;27863;49.440;11.102;2023-11-19T08:57:43;1.57;;;1.27;;
42194;SDS011;27863;49.440;11.102;2023-11-19T09:00:45;3.30;;;1.20;;
42194;SDS011;27863;49.440;11.102;2023-11-19T09:03:48;1.57;;;1.47;;
42194;SDS011;27863;49.440;11.102;2023-11-19T09:06:49;1.33;;;1.10;;
42194;SDS011;27863;49.440;11.102;2023-11-19T09:09:50;3.13;;;1.40;;
42194;SDS011;27863;49.440;11.102;2023-11-19T09:12:51;1.07;;;1.00;;
42194;SDS011;27863;49.440;11.102;2023-11-19T09:15:52;1.00;;;0.70;;
42194;SDS011;27863;49.440;11.102;2023-11-19T09:18:52;1.20;;;1.10;;
42194;SDS011;27863;49.440;11.102;2023-11-19T09:21:53;0.87;;;0.87;;
42194;SDS011;27863;49.440;11.102;2023-11-19T09:24:54;1.23;;;0.83;;
42194;SDS011;27863;49.440;11.102;2023-11-19T09:27:54;0.87;;;0.87;;
42194;SDS011;27863;49.440;11.102;2023-11-19T09:30:55;1.50;;;0.97;;
42194;SDS011;27863;49.440;11.102;2023-11-19T09:33:55;1.20;;;0.90;;
42194;SDS011;27863;49.440;11.102;2023-11-19T09:36:56;0.87;;;0.80;;
42194;SDS011;27863;49.440;11.102;2023-11-19T09:39:57;0.80;;;0.80;;
42194;SDS011;27863;49.440;11.102;2023-11-19T09:42:58;1.33;;;0.60;;
42194;SDS011;27863;49.440;11.102;2023-11-19T09:45:59;0.87;;;0.80;;
42194;SDS011;27863;49.440;11.102;2023-11-19T09:49:06;0.70;;;0.60;;
42194;SDS011;27863;49.440;11.102;2023-11-19T09:52:09;1.60;;;0.60;;
42194;SDS011;27863;49.440;11.102;2023-11-19T09:55:10;2.67;;;0.90;;
42194;SDS011;27863;49.440;11.102;2023-11-19T09:58:12;1.47;;;0.77;;
42194;SDS011;27863;49.440;11.102;2023-11-19T10:01:15;1.00;;;0.80;;
42194;SDS011;27863;49.440;11.102;2023-11-19T10:04:15;1.20;;;1.00;;
42194;SDS011;27863;49.440;11.102;2023-11-19T10:07:17;1.60;;;1.00;;
42194;SDS011;27863;49.440;11.102;2023-11-19T10:10:18;1.30;;;0.73;;
42194;SDS011;27863;49.440;11.102;2023-11-19T10:13:25;0.97;;;0.60;;
42194;SDS011;27863;49.440;11.102;2023-11-19T10:16:28;1.03;;;0.73;;
42194;SDS011;27863;49.440;11.102;2023-11-19T10:19:31;1.03;;;0.67;;
42194;SDS011;27863;49.440;11.102;2023-11-19T10:22:36;1.43;;;0.80;;
42194;SDS011;27863;49.440;11.102;2023-11-19T10:25:38;0.70;;;0.70;;
42194;SDS011;27863;49.440;11.102;2023-11-19T10:28:39;0.80;;;0.70;;
42194;SDS011;27863;49.440;11.102;2023-11-19T10:31:43;2.93;;;0.80;;
42194;SDS011;27863;49.440;11.102;2023-11-19T10:35:04;2.83;;;0.67;;
42194;SDS011;27863;49.440;11.102;2023-11-19T10:38:15;0.73;;;0.73;;
42194;SDS011;27863;49.440;11.102;2023-11-19T10:41:39;1.37;;;0.70;;
42194;SDS011;27863;49.440;11.102;2023-11-19T10:44:39;1.00;;;0.67;;
42194;SDS011;27863;49.440;11.102;2023-11-19T10:47:40;0.97;;;0.67;;
42194;SDS011;27863;49.440;11.102;2023-11-19T10:50:43;1.47;;;0.70;;
42194;SDS011;27863;49.440;11.102;2023-11-19T10:53:44;1.00;;;0.90;;
42194;SDS011;27863;49.440;11.102;2023-11-19T10:56:46;0.83;;;0.83;;
42194;SDS011;27863;49.440;11.102;2023-11-19T10:59:55;1.87;;;0.90;;
42194;SDS011;27863;49.440;11.102;2023-11-19T11:03:01;1.27;;;0.77;;
42194;SDS011;27863;49.440;11.102;2023-11-19T11:06:02;1.57;;;1.20;;
42194;SDS011;27863;49.440;11.102;2023-11-19T11:09:03;0.70;;;0.70;;
42194;SDS011;27863;49.440;11.102;2023-11-19T11:12:06;3.10;;;1.75;;
42194;SDS011;27863;49.440;11.102;2023-11-19T11:15:06;1.00;;;0.80;;
42194;SDS011;27863;49.440;11.102;2023-11-19T11:18:08;1.13;;;0.90;;
42194;SDS011;27863;49.440;11.102;2023-11-19T11:21:09;1.43;;;0.73;;
42194;SDS011;27863;49.440;11.102;2023-11-19T11:37:28;1.83;;;0.80;;
42194;SDS011;27863;49.440;11.102;2023-11-19T11:40:34;1.47;;;0.80;;
42194;SDS011;27863;49.440;11.102;2023-11-19T11:43:45;1.70;;;0.70;;
42194;SDS011;27863;49.440;11.102;2023-11-19T11:46:53;0.52;;;0.50;;
42194;SDS011;27863;49.440;11.102;2023-11-19T11:49:54;0.85;;;0.60;;
42194;SDS011;27863;49.440;11.102;2023-11-19T11:56:00;2.08;;;0.80;;
42194;SDS011;27863;49.440;11.102;2023-11-19T11:59:07;0.90;;;0.75;;
42194;SDS011;27863;49.440;11.102;2023-11-19T12:02:09;0.65;;;0.65;;
42194;SDS011;27863;49.440;11.102;2023-11-19T12:05:12;1.02;;;0.65;;
42194;SDS011;27863;49.440;11.102;2023-11-19T12:08:13;1.23;;;0.90;;
42194;SDS011;27863;49.440;11.102;2023-11-19T12:11:16;1.38;;;0.90;;
42194;SDS011;27863;49.440;11.102;2023-11-19T12:14:16;0.80;;;0.63;;
42194;SDS011;27863;49.440;11.102;2023-11-19T12:20:36;0.98;;;0.90;;
42194;SDS011;27863;49.440;11.102;2023-11-19T12:23:46;1.83;;;1.00;;
42194;SDS011;27863;49.440;11.102;2023-11-19T12:26:48;1.58;;;1.02;;
42194;SDS011;27863;49.440;11.102;2023-11-19T12:29:51;1.73;;;0.70;;
42194;SDS011;27863;49.440;11.102;2023-11-19T12:32:52;0.98;;;0.70;;
42194;SDS011;27863;49.440;11.102;2023-11-19T12:35:56;1.05;;;0.90;;
42194;SDS011;27863;49.440;11.102;2023-11-19T12:38:57;0.77;;;0.70;;
42194;SDS011;27863;49.440;11.102;2023-11-19T12:41:58;2.45;;;0.90;;
42194;SDS011;27863;49.440;11.102;2023-11-19T12:45:01;2.10;;;1.00;;
42194;SDS011;27863;49.440;11.102;2023-11-19T12:48:05;1.05;;;0.73;;
42194;SDS011;27863;49.440;11.102;2023-11-19T12:51:08;1.20;;;0.93;;
42194;SDS011;27863;49.440;11.102;2023-11-19T12:54:08;1.77;;;0.85;;
42194;SDS011;27863;49.440;11.102;2023-11-19T12:57:09;1.80;;;1.05;;
42194;SDS011;27863;49.440;11.102;2023-11-19T13:00:19;1.17;;;0.88;;
42194;SDS011;27863;49.440;11.102;2023-11-19T13:03:29;2.10;;;1.00;;
42194;SDS011;27863;49.440;11.102;2023-11-19T13:06:32;1.52;;;1.00;;
42194;SDS011;27863;49.440;11.102;2023-11-19T13:09:33;2.22;;;1.33;;
42194;SDS011;27863;49.440;11.102;2023-11-19T13:12:34;1.05;;;0.90;;
42194;SDS011;27863;49.440;11.102;2023-11-19T13:15:35;1.25;;;1.00;;
42194;SDS011;27863;49.440;11.102;2023-11-19T13:18:36;1.58;;;1.05;;
42194;SDS011;27863;49.440;11.102;2023-11-19T13:21:39;3.03;;;1.40;;
42194;SDS011;27863;49.440;11.102;2023-11-19T13:24:46;2.60;;;1.25;;
42194;SDS011;27863;49.440;11.102;2023-11-19T13:27:46;1.15;;;0.85;;
42194;SDS011;27863;49.440;11.102;2023-11-19T13:30:52;1.05;;;0.70;;
42194;SDS011;27863;49.440;11.102;2023-11-19T13:33:56;2.05;;;0.40;;
42194;SDS011;27863;49.440;11.102;2023-11-19T13:37:10;2.33;;;0.63;;
42194;SDS011;27863;49.440;11.102;2023-11-19T13:40:11;1.15;;;0.70;;
42194;SDS011;27863;49.440;11.102;2023-11-19T13:43:14;1.35;;;0.80;;
42194;SDS011;27863;49.440;11.102;2023-11-19T13:46:17;0.50;;;0.50;;
42194;SDS011;27863;49.440;11.102;2023-11-19T13:49:20;1.80;;;0.50;;
42194;SDS011;27863;49.440;11.102;2023-11-19T13:52:21;0.80;;;0.80;;
42194;SDS011;27863;49.440;11.102;2023-11-19T13:55:22;1.33;;;0.80;;
42194;SDS011;27863;49.440;11.102;2023-11-19T13:58:22;1.30;;;0.80;;
42194;SDS011;27863;49.440;11.102;2023-11-19T14:01:25;0.68;;;0.68;;
42194;SDS011;27863;49.440;11.102;2023-11-19T14:04:26;2.25;;;1.33;;
42194;SDS011;27863;49.440;11.102;2023-11-19T14:07:27;2.97;;;0.90;;
42194;SDS011;27863;49.440;11.102;2023-11-19T14:10:32;3.55;;;0.60;;
42194;SDS011;27863;49.440;11.102;2023-11-19T14:13:33;0.80;;;0.60;;
42194;SDS011;27863;49.440;11.102;2023-11-19T14:16:36;2.92;;;0.57;;
42194;SDS011;27863;49.440;11.102;2023-11-19T14:19:39;1.60;;;0.77;;
42194;SDS011;27863;49.440;11.102;2023-11-19T14:22:40;1.77;;;0.70;;
42194;SDS011;27863;49.440;11.102;2023-11-19T14:25:42;0.88;;;0.80;;
42194;SDS011;27863;49.440;11.102;2023-11-19T14:28:43;1.65;;;0.82;;
42194;SDS011;27863;49.440;11.102;2023-11-19T14:31:44;1.85;;;0.90;;
42194;SDS011;27863;49.440;11.102;2023-11-19T14:34:45;2.10;;;0.75;;
42194;SDS011;27863;49.440;11.102;2023-11-19T14:37:46;2.13;;;0.88;;
42194;SDS011;27863;49.440;11.102;2023-11-19T14:40:47;3.00;;;0.70;;
42194;SDS011;27863;49.440;11.102;2023-11-19T14:43:49;1.95;;;0.82;;
42194;SDS011;27863;49.440;11.102;2023-11-19T14:46:50;1.65;;;1.20;;
42194;SDS011;27863;49.440;11.102;2023-11-19T14:49:58;1.23;;;0.70;;
42194;SDS011;27863;49.440;11.102;2023-11-19T14:53:00;0.63;;;0.57;;
42194;SDS011;27863;49.440;11.102;2023-11-19T14:56:00;3.67;;;0.77;;
42194;SDS011;27863;49.440;11.102;2023-11-19T14:59:01;1.67;;;0.90;;
42194;SDS011;27863;49.440;11.102;2023-11-19T15:02:02;1.90;;;1.17;;
42194;SDS011;27863;49.440;11.102;2023-11-19T15:05:06;0.60;;;0.60;;
42194;SDS011;27863;49.440;11.102;2023-11-19T15:08:11;1.23;;;0.77;;
42194;SDS011;27863;49.440;11.102;2023-11-19T15:11:13;2.13;;;0.93;;
42194;SDS011;27863;49.440;11.102;2023-11-19T15:14:13;2.08;;;1.10;;
42194;SDS011;27863;49.440;11.102;2023-11-19T15:17:18;1.10;;;0.90;;
42194;SDS011;27863;49.440;11.102;2023-11-19T15:20:20;1.97;;;0.80;;
42194;SDS011;27863;49.440;11.102;2023-11-19T15:23:23;6.90;;;5.13;;
42194;SDS011;27863;49.440;11.102;2023-11-19T15:26:24;2.90;;;1.60;;
42194;SDS011;27863;49.440;11.102;2023-11-19T15:29:25;3.17;;;1.50;;
42194;SDS011;27863;49.440;11.102;2023-11-19T15:32:26;2.50;;;1.43;;
42194;SDS011;27863;49.440;11.102;2023-11-19T15:35:27;1.13;;;1.03;;
42194;SDS011;27863;49.440;11.102;2023-11-19T15:38:27;2.10;;;1.20;;
42194;SDS011;27863;49.440;11.102;2023-11-19T15:41:28;1.10;;;0.90;;
42194;SDS011;27863;49.440;11.102;2023-11-19T15:44:28;1.83;;;1.30;;
42194;SDS011;27863;49.440;11.102;2023-11-19T15:47:29;5.80;;;1.70;;
42194;SDS011;27863;49.440;11.102;2023-11-19T15:50:29;2.10;;;1.37;;
42194;SDS011;27863;49.440;11.102;2023-11-19T15:53:33;2.33;;;1.17;;
42194;SDS011;27863;49.440;11.102;2023-11-19T15:56:33;3.53;;;1.60;;
42194;SDS011;27863;49.440;11.102;2023-11-19T15:59:36;2.03;;;1.40;;
42194;SDS011;27863;49.440;11.102;2023-11-19T16:02:37;2.37;;;1.33;;
42194;SDS011;27863;49.440;11.102;2023-11-19T16:05:38;1.57;;;1.00;;
42194;SDS011;27863;49.440;11.102;2023-11-19T16:08:38;6.83;;;1.40;;
42194;SDS011;27863;49.440;11.102;2023-11-19T16:11:39;2.60;;;2.07;;
42194;SDS011;27863;49.440;11.102;2023-11-19T16:14:43;1.33;;;0.90;;
42194;SDS011;27863;49.440;11.102;2023-11-19T16:17:44;3.73;;;1.43;;
42194;SDS011;27863;49.440;11.102;2023-11-19T16:20:45;2.10;;;1.37;;
42194;SDS011;27863;49.440;11.102;2023-11-19T16:23:47;2.93;;;1.87;;
42194;SDS011;27863;49.440;11.102;2023-11-19T16:26:47;1.53;;;1.10;;
42194;SDS011;27863;49.440;11.102;2023-11-19T16:29:48;2.87;;;1.37;;
42194;SDS011;27863;49.440;11.102;2023-11-19T16:32:53;1.40;;;1.00;;
42194;SDS011;27863;49.440;11.102;2023-11-19T16:35:56;1.10;;;1.00;;
42194;SDS011;27863;49.440;11.102;2023-11-19T16:39:00;7.13;;;1.80;;
42194;SDS011;27863;49.440;11.102;2023-11-19T16:42:01;1.57;;;1.47;;
42194;SDS011;27863;49.440;11.102;2023-11-19T16:45:02;3.37;;;1.37;;
42194;SDS011;27863;49.440;11.102;2023-11-19T16:48:03;0.90;;;0.70;;
42194;SDS011;27863;49.440;11.102;2023-11-19T16:51:08;1.40;;;0.73;;
42194;SDS011;27863;49.440;11.102;2023-11-19T16:54:13;1.67;;;1.10;;
42194;SDS011;27863;49.440;11.102;2023-11-19T16:57:14;1.50;;;1.10;;
42194;SDS011;27863;49.440;11.102;2023-11-19T17:00:15;1.30;;;1.20;;
42194;SDS011;27863;49.440;11.102;2023-11-19T17:03:16;1.70;;;1.57;;
42194;SDS011;27863;49.440;11.102;2023-11-19T17:06:17;3.20;;;0.80;;
42194;SDS011;27863;49.440;11.102;2023-11-19T17:09:18;1.20;;;0.93;;
42194;SDS011;27863;49.440;11.102;2023-11-19T17:12:19;1.80;;;1.20;;
42194;SDS011;27863;49.440;11.102;2023-11-19T17:15:20;4.87;;;1.40;;
42194;SDS011;27863;49.440;11.102;2023-11-19T17:18:21;1.47;;;0.73;;
42194;SDS011;27863;49.440;11.102;2023-11-19T17:21:22;1.30;;;0.83;;
42194;SDS011;27863;49.440;11.102;2023-11-19T17:24:23;0.77;;;0.77;;
42194;SDS011;27863;49.440;11.102;2023-11-19T17:27:23;1.97;;;0.80;;
42194;SDS011;27863;49.440;11.102;2023-11-19T17:30:27;1.73;;;0.80;;
42194;SDS011;27863;49.440;11.102;2023-11-19T17:33:41;2.90;;;1.27;;
42194;SDS011;27863;49.440;11.102;2023-11-19T17:36:42;1.27;;;1.17;;
42194;SDS011;27863;49.440;11.102;2023-11-19T17:39:43;2.73;;;1.20;;
42194;SDS011;27863;49.440;11.102;2023-11-19T17:42:44;2.50;;;1.03;;
42194;SDS011;27863;49.440;11.102;2023-11-19T17:45:44;0.80;;;0.80;;
42194;SDS011;27863;49.440;11.102;2023-11-19T17:48:47;2.23;;;1.43;;
42194;SDS011;27863;49.440;11.102;2023-11-19T17:51:49;2.37;;;1.50;;
42194;SDS011;27863;49.440;11.102;2023-11-19T17:54:49;4.40;;;1.77;;
42194;SDS011;27863;49.440;11.102;2023-11-19T17:57:50;3.63;;;1.73;;
42194;SDS011;27863;49.440;11.102;2023-11-19T18:00:52;1.77;;;1.20;;
42194;SDS011;27863;49.440;11.102;2023-11-19T18:03:52;1.30;;;1.20;;
42194;SDS011;27863;49.440;11.102;2023-11-19T18:06:53;5.43;;;1.80;;
42194;SDS011;27863;49.440;11.102;2023-11-19T18:09:54;3.10;;;1.40;;
42194;SDS011;27863;49.440;11.102;2023-11-19T18:12:54;3.10;;;1.70;;
42194;SDS011;27863;49.440;11.102;2023-11-19T18:15:55;2.47;;;1.47;;
42194;SDS011;27863;49.440;11.102;2023-11-19T18:18:56;2.37;;;1.20;;